sensor_id;sensor_type;location;lat;lon;timestamp;pressure;altitude;pressure_sealevel;temperature
69590;BMP180;56792;50.644;17.984;2023-04-01T00:00:57;97896.80;;;8.80
69590;BMP180;56792;50.644;17.984;2023-04-01T00:03:26;97897.40;;;8.80
69590;BMP180;56792;50.644;17.984;2023-04-01T00:05:55;97899.20;;;8.82
69590;BMP180;56792;50.644;17.984;2023-04-01T00:08:25;97895.80;;;8.90
69590;BMP180;56792;50.644;17.984;2023-04-01T00:10:54;97904.20;;;8.90
69590;BMP180;56792;50.644;17.984;2023-04-01T00:13:23;97904.20;;;8.90
69590;BMP180;56792;50.644;17.984;2023-04-01T00:15:51;97896.40;;;8.90
69590;BMP180;56792;50.644;17.984;2023-04-01T00:18:20;97888.60;;;8.90
69590;BMP180;56792;50.644;17.984;2023-04-01T00:20:50;97884.20;;;8.92
69590;BMP180;56792;50.644;17.984;2023-04-01T00:23:19;97883.60;;;9.00
69590;BMP180;56792;50.644;17.984;2023-04-01T00:25:48;97882.80;;;9.00
69590;BMP180;56792;50.644;17.984;2023-04-01T00:28:19;97876.60;;;9.00
69590;BMP180;56792;50.644;17.984;2023-04-01T00:30:47;97879.00;;;9.00
69590;BMP180;56792;50.644;17.984;2023-04-01T00:33:16;97878.40;;;8.98
69590;BMP180;56792;50.644;17.984;2023-04-01T00:35:45;97879.00;;;8.98
69590;BMP180;56792;50.644;17.984;2023-04-01T00:38:13;97881.20;;;9.00
69590;BMP180;56792;50.644;17.984;2023-04-01T00:40:43;97882.60;;;9.00
69590;BMP180;56792;50.644;17.984;2023-04-01T00:43:16;97885.40;;;8.96
69590;BMP180;56792;50.644;17.984;2023-04-01T00:45:48;97882.20;;;8.90
69590;BMP180;56792;50.644;17.984;2023-04-01T00:48:20;97882.20;;;8.90
69590;BMP180;56792;50.644;17.984;2023-04-01T00:50:55;97878.60;;;8.90
69590;BMP180;56792;50.644;17.984;2023-04-01T00:53:25;97876.40;;;8.90
69590;BMP180;56792;50.644;17.984;2023-04-01T00:56:00;97879.80;;;8.90
69590;BMP180;56792;50.644;17.984;2023-04-01T00:58:35;97883.80;;;8.90
69590;BMP180;56792;50.644;17.984;2023-04-01T01:01:04;97883.80;;;8.88
69590;BMP180;56792;50.644;17.984;2023-04-01T01:03:34;97881.40;;;8.80
69590;BMP180;56792;50.644;17.984;2023-04-01T01:06:13;97880.40;;;8.80
69590;BMP180;56792;50.644;17.984;2023-04-01T01:09:12;97873.40;;;8.80
69590;BMP180;56792;50.644;17.984;2023-04-01T01:11:48;97875.20;;;8.70
69590;BMP180;56792;50.644;17.984;2023-04-01T01:14:34;97872.20;;;8.70
69590;BMP180;56792;50.644;17.984;2023-04-01T01:17:15;97871.40;;;8.70
69590;BMP180;56792;50.644;17.984;2023-04-01T01:20:07;97869.60;;;8.70
69590;BMP180;56792;50.644;17.984;2023-04-01T01:23:00;97868.80;;;8.60
69590;BMP180;56792;50.644;17.984;2023-04-01T01:25:48;97870.20;;;8.60
69590;BMP180;56792;50.644;17.984;2023-04-01T01:28:38;97868.80;;;8.60
69590;BMP180;56792;50.644;17.984;2023-04-01T01:31:16;97865.60;;;8.60
69590;BMP180;56792;50.644;17.984;2023-04-01T01:34:03;97866.00;;;8.60
69590;BMP180;56792;50.644;17.984;2023-04-01T01:36:34;97860.00;;;8.60
69590;BMP180;56792;50.644;17.984;2023-04-01T01:39:09;97864.00;;;8.60
69590;BMP180;56792;50.644;17.984;2023-04-01T01:41:40;97864.60;;;8.60
69590;BMP180;56792;50.644;17.984;2023-04-01T01:44:12;97863.20;;;8.60
69590;BMP180;56792;50.644;17.984;2023-04-01T01:46:43;97863.00;;;8.60
69590;BMP180;56792;50.644;17.984;2023-04-01T01:49:13;97863.20;;;8.60
69590;BMP180;56792;50.644;17.984;2023-04-01T01:51:42;97858.60;;;8.60
69590;BMP180;56792;50.644;17.984;2023-04-01T01:54:14;97860.60;;;8.60
69590;BMP180;56792;50.644;17.984;2023-04-01T01:56:48;97859.20;;;8.60
69590;BMP180;56792;50.644;17.984;2023-04-01T01:59:20;97854.00;;;8.60
69590;BMP180;56792;50.644;17.984;2023-04-01T02:01:53;97855.40;;;8.60
69590;BMP180;56792;50.644;17.984;2023-04-01T02:04:24;97856.00;;;8.60
69590;BMP180;56792;50.644;17.984;2023-04-01T02:06:59;97857.40;;;8.64
69590;BMP180;56792;50.644;17.984;2023-04-01T02:09:29;97858.80;;;8.70
69590;BMP180;56792;50.644;17.984;2023-04-01T02:12:00;97857.80;;;8.70
69590;BMP180;56792;50.644;17.984;2023-04-01T02:14:41;97858.40;;;8.70
69590;BMP180;56792;50.644;17.984;2023-04-01T02:17:15;97859.60;;;8.70
69590;BMP180;56792;50.644;17.984;2023-04-01T02:19:49;97858.80;;;8.70
69590;BMP180;56792;50.644;17.984;2023-04-01T02:22:24;97858.00;;;8.80
69590;BMP180;56792;50.644;17.984;2023-04-01T02:24:58;97862.40;;;8.80
69590;BMP180;56792;50.644;17.984;2023-04-01T02:27:27;97867.20;;;8.80
69590;BMP180;56792;50.644;17.984;2023-04-01T02:29:56;97864.60;;;8.80
69590;BMP180;56792;50.644;17.984;2023-04-01T02:32:25;97863.00;;;8.86
69590;BMP180;56792;50.644;17.984;2023-04-01T02:34:55;97861.00;;;8.90
69590;BMP180;56792;50.644;17.984;2023-04-01T02:37:24;97862.80;;;8.90
69590;BMP180;56792;50.644;17.984;2023-04-01T02:39:52;97866.40;;;8.90
69590;BMP180;56792;50.644;17.984;2023-04-01T02:42:20;97869.40;;;9.00
69590;BMP180;56792;50.644;17.984;2023-04-01T02:44:49;97870.00;;;9.00
69590;BMP180;56792;50.644;17.984;2023-04-01T02:47:17;97869.60;;;9.00
69590;BMP180;56792;50.644;17.984;2023-04-01T02:49:45;97874.80;;;9.00
69590;BMP180;56792;50.644;17.984;2023-04-01T02:52:13;97873.60;;;9.00
69590;BMP180;56792;50.644;17.984;2023-04-01T02:54:42;97875.00;;;9.00
69590;BMP180;56792;50.644;17.984;2023-04-01T02:57:10;97880.20;;;9.00
69590;BMP180;56792;50.644;17.984;2023-04-01T02:59:38;97886.40;;;9.00
69590;BMP180;56792;50.644;17.984;2023-04-01T03:02:06;97893.20;;;9.00
69590;BMP180;56792;50.644;17.984;2023-04-01T03:04:34;97894.00;;;8.90
69590;BMP180;56792;50.644;17.984;2023-04-01T03:07:03;97892.00;;;8.90
69590;BMP180;56792;50.644;17.984;2023-04-01T03:09:32;97892.60;;;8.90
69590;BMP180;56792;50.644;17.984;2023-04-01T03:12:00;97892.00;;;8.90
69590;BMP180;56792;50.644;17.984;2023-04-01T03:14:29;97892.60;;;8.90
69590;BMP180;56792;50.644;17.984;2023-04-01T03:16:57;97892.40;;;8.90
69590;BMP180;56792;50.644;17.984;2023-04-01T03:19:26;97888.80;;;8.90
69590;BMP180;56792;50.644;17.984;2023-04-01T03:21:54;97894.80;;;8.80
69590;BMP180;56792;50.644;17.984;2023-04-01T03:24:23;97891.40;;;8.78
69590;BMP180;56792;50.644;17.984;2023-04-01T03:26:51;97897.00;;;8.70
69590;BMP180;56792;50.644;17.984;2023-04-01T03:29:20;97897.00;;;8.70
69590;BMP180;56792;50.644;17.984;2023-04-01T03:31:48;97896.60;;;8.70
69590;BMP180;56792;50.644;17.984;2023-04-01T03:34:16;97895.80;;;8.66
69590;BMP180;56792;50.644;17.984;2023-04-01T03:36:44;97898.40;;;8.60
69590;BMP180;56792;50.644;17.984;2023-04-01T03:39:13;97896.40;;;8.60
69590;BMP180;56792;50.644;17.984;2023-04-01T03:41:42;97900.20;;;8.60
69590;BMP180;56792;50.644;17.984;2023-04-01T03:44:10;97902.60;;;8.60
69590;BMP180;56792;50.644;17.984;2023-04-01T03:46:38;97903.60;;;8.60
69590;BMP180;56792;50.644;17.984;2023-04-01T03:49:09;97906.40;;;8.50
69590;BMP180;56792;50.644;17.984;2023-04-01T03:51:39;97905.80;;;8.50
69590;BMP180;56792;50.644;17.984;2023-04-01T03:54:08;97903.60;;;8.50
69590;BMP180;56792;50.644;17.984;2023-04-01T03:56:37;97902.40;;;8.50
69590;BMP180;56792;50.644;17.984;2023-04-01T03:59:07;97905.80;;;8.46
69590;BMP180;56792;50.644;17.984;2023-04-01T04:01:36;97902.20;;;8.40
69590;BMP180;56792;50.644;17.984;2023-04-01T04:04:04;97900.20;;;8.40
69590;BMP180;56792;50.644;17.984;2023-04-01T04:06:34;97898.40;;;8.40
69590;BMP180;56792;50.644;17.984;2023-04-01T04:09:02;97902.60;;;8.30
69590;BMP180;56792;50.644;17.984;2023-04-01T04:11:32;97898.20;;;8.30
69590;BMP180;56792;50.644;17.984;2023-04-01T04:14:00;97902.80;;;8.30
69590;BMP180;56792;50.644;17.984;2023-04-01T04:16:29;97901.00;;;8.20
69590;BMP180;56792;50.644;17.984;2023-04-01T04:19:00;97897.60;;;8.14
69590;BMP180;56792;50.644;17.984;2023-04-01T04:21:28;97899.00;;;8.10
69590;BMP180;56792;50.644;17.984;2023-04-01T04:23:57;97894.60;;;8.16
69590;BMP180;56792;50.644;17.984;2023-04-01T04:26:26;97896.80;;;8.18
69590;BMP180;56792;50.644;17.984;2023-04-01T04:29:00;97897.40;;;8.18
69590;BMP180;56792;50.644;17.984;2023-04-01T04:31:28;97900.00;;;8.20
69590;BMP180;56792;50.644;17.984;2023-04-01T04:34:00;97900.80;;;8.20
69590;BMP180;56792;50.644;17.984;2023-04-01T04:36:28;97906.00;;;8.20
69590;BMP180;56792;50.644;17.984;2023-04-01T04:38:57;97902.60;;;8.20
69590;BMP180;56792;50.644;17.984;2023-04-01T04:41:26;97904.40;;;8.20
69590;BMP180;56792;50.644;17.984;2023-04-01T04:43:56;97904.80;;;8.20
69590;BMP180;56792;50.644;17.984;2023-04-01T04:46:26;97908.00;;;8.20
69590;BMP180;56792;50.644;17.984;2023-04-01T04:49:02;97901.80;;;8.20
69590;BMP180;56792;50.644;17.984;2023-04-01T04:51:30;97901.80;;;8.20
69590;BMP180;56792;50.644;17.984;2023-04-01T04:54:01;97905.00;;;8.20
69590;BMP180;56792;50.644;17.984;2023-04-01T04:56:40;97904.40;;;8.20
69590;BMP180;56792;50.644;17.984;2023-04-01T04:59:10;97907.80;;;8.20
69590;BMP180;56792;50.644;17.984;2023-04-01T05:01:56;97912.00;;;8.22
69590;BMP180;56792;50.644;17.984;2023-04-01T05:04:25;97910.80;;;8.30
69590;BMP180;56792;50.644;17.984;2023-04-01T05:06:53;97915.20;;;8.30
69590;BMP180;56792;50.644;17.984;2023-04-01T05:09:21;97910.40;;;8.30
69590;BMP180;56792;50.644;17.984;2023-04-01T05:11:49;97913.40;;;8.32
69590;BMP180;56792;50.644;17.984;2023-04-01T05:14:18;97916.80;;;8.40
69590;BMP180;56792;50.644;17.984;2023-04-01T05:16:54;97916.40;;;8.40
69590;BMP180;56792;50.644;17.984;2023-04-01T05:19:22;97923.00;;;8.50
69590;BMP180;56792;50.644;17.984;2023-04-01T05:21:50;97924.40;;;8.60
69590;BMP180;56792;50.644;17.984;2023-04-01T05:24:20;97920.00;;;8.60
69590;BMP180;56792;50.644;17.984;2023-04-01T05:26:49;97917.60;;;8.70
69590;BMP180;56792;50.644;17.984;2023-04-01T05:29:17;97919.40;;;8.70
69590;BMP180;56792;50.644;17.984;2023-04-01T05:31:45;97919.40;;;8.70
69590;BMP180;56792;50.644;17.984;2023-04-01T05:34:14;97917.20;;;8.80
69590;BMP180;56792;50.644;17.984;2023-04-01T05:36:43;97919.20;;;8.80
69590;BMP180;56792;50.644;17.984;2023-04-01T05:39:11;97923.00;;;8.80
69590;BMP180;56792;50.644;17.984;2023-04-01T05:41:41;97925.20;;;8.80
69590;BMP180;56792;50.644;17.984;2023-04-01T05:44:12;97924.40;;;8.80
69590;BMP180;56792;50.644;17.984;2023-04-01T05:46:41;97927.00;;;8.80
69590;BMP180;56792;50.644;17.984;2023-04-01T05:49:16;97927.20;;;8.80
69590;BMP180;56792;50.644;17.984;2023-04-01T05:51:44;97929.00;;;8.80
69590;BMP180;56792;50.644;17.984;2023-04-01T05:54:12;97933.00;;;8.82
69590;BMP180;56792;50.644;17.984;2023-04-01T05:56:40;97933.00;;;8.84
69590;BMP180;56792;50.644;17.984;2023-04-01T05:59:11;97932.20;;;8.88
69590;BMP180;56792;50.644;17.984;2023-04-01T06:01:40;97935.00;;;8.90
69590;BMP180;56792;50.644;17.984;2023-04-01T06:04:11;97940.80;;;8.90
69590;BMP180;56792;50.644;17.984;2023-04-01T06:06:41;97941.40;;;8.90
69590;BMP180;56792;50.644;17.984;2023-04-01T06:09:15;97939.60;;;8.90
69590;BMP180;56792;50.644;17.984;2023-04-01T06:12:15;97945.80;;;8.90
69590;BMP180;56792;50.644;17.984;2023-04-01T06:15:06;97945.80;;;8.90
69590;BMP180;56792;50.644;17.984;2023-04-01T06:17:55;97949.60;;;8.90
69590;BMP180;56792;50.644;17.984;2023-04-01T06:20:39;97955.40;;;8.90
69590;BMP180;56792;50.644;17.984;2023-04-01T06:23:29;97959.20;;;9.00
69590;BMP180;56792;50.644;17.984;2023-04-01T06:26:17;97957.20;;;9.00
69590;BMP180;56792;50.644;17.984;2023-04-01T06:29:24;97959.20;;;9.00
69590;BMP180;56792;50.644;17.984;2023-04-01T06:32:24;97960.80;;;9.00
69590;BMP180;56792;50.644;17.984;2023-04-01T06:35:20;97965.20;;;9.10
69590;BMP180;56792;50.644;17.984;2023-04-01T06:38:14;97959.60;;;9.10
69590;BMP180;56792;50.644;17.984;2023-04-01T06:41:12;97961.40;;;9.10
69590;BMP180;56792;50.644;17.984;2023-04-01T06:43:55;97963.80;;;9.10
69590;BMP180;56792;50.644;17.984;2023-04-01T06:46:58;97967.40;;;9.20
69590;BMP180;56792;50.644;17.984;2023-04-01T06:50:19;97963.00;;;9.20
69590;BMP180;56792;50.644;17.984;2023-04-01T06:53:16;97966.60;;;9.30
69590;BMP180;56792;50.644;17.984;2023-04-01T06:56:09;97968.60;;;9.30
69590;BMP180;56792;50.644;17.984;2023-04-01T06:59:02;97969.80;;;9.30
69590;BMP180;56792;50.644;17.984;2023-04-01T07:01:39;97970.40;;;9.30
69590;BMP180;56792;50.644;17.984;2023-04-01T07:04:15;97968.00;;;9.40
69590;BMP180;56792;50.644;17.984;2023-04-01T07:06:48;97971.20;;;9.50
69590;BMP180;56792;50.644;17.984;2023-04-01T07:09:24;97973.40;;;9.60
69590;BMP180;56792;50.644;17.984;2023-04-01T07:12:25;97977.20;;;9.70
69590;BMP180;56792;50.644;17.984;2023-04-01T07:15:20;97978.80;;;9.76
69590;BMP180;56792;50.644;17.984;2023-04-01T07:17:56;97979.40;;;9.80
69590;BMP180;56792;50.644;17.984;2023-04-01T07:20:31;97980.40;;;9.72
69590;BMP180;56792;50.644;17.984;2023-04-01T07:23:03;97978.00;;;9.80
69590;BMP180;56792;50.644;17.984;2023-04-01T07:25:43;97977.40;;;9.90
69590;BMP180;56792;50.644;17.984;2023-04-01T07:28:35;97980.00;;;9.90
69590;BMP180;56792;50.644;17.984;2023-04-01T07:31:22;97980.40;;;9.92
69590;BMP180;56792;50.644;17.984;2023-04-01T07:34:04;97985.20;;;10.00
69590;BMP180;56792;50.644;17.984;2023-04-01T07:36:40;97986.00;;;9.90
69590;BMP180;56792;50.644;17.984;2023-04-01T07:39:24;97988.80;;;9.90
69590;BMP180;56792;50.644;17.984;2023-04-01T07:42:31;97993.20;;;9.82
69590;BMP180;56792;50.644;17.984;2023-04-01T07:45:13;97994.00;;;9.80
69590;BMP180;56792;50.644;17.984;2023-04-01T07:48:08;97991.60;;;9.70
69590;BMP180;56792;50.644;17.984;2023-04-01T07:50:46;97994.40;;;9.70
69590;BMP180;56792;50.644;17.984;2023-04-01T07:53:26;97993.20;;;9.70
69590;BMP180;56792;50.644;17.984;2023-04-01T07:56:06;97993.00;;;9.70
69590;BMP180;56792;50.644;17.984;2023-04-01T07:58:51;97999.40;;;9.80
69590;BMP180;56792;50.644;17.984;2023-04-01T08:02:00;98002.20;;;10.00
69590;BMP180;56792;50.644;17.984;2023-04-01T08:04:50;98001.20;;;10.10
69590;BMP180;56792;50.644;17.984;2023-04-01T08:07:24;98001.40;;;10.20
69590;BMP180;56792;50.644;17.984;2023-04-01T08:10:19;98002.00;;;10.20
69590;BMP180;56792;50.644;17.984;2023-04-01T08:13:25;98003.80;;;10.20
69590;BMP180;56792;50.644;17.984;2023-04-01T08:16:22;98004.40;;;10.20
69590;BMP180;56792;50.644;17.984;2023-04-01T08:19:02;98004.60;;;10.20
69590;BMP180;56792;50.644;17.984;2023-04-01T08:21:43;98007.00;;;10.20
69590;BMP180;56792;50.644;17.984;2023-04-01T08:24:22;98004.00;;;10.20
69590;BMP180;56792;50.644;17.984;2023-04-01T08:26:59;98005.80;;;10.20
69590;BMP180;56792;50.644;17.984;2023-04-01T08:29:40;98003.20;;;10.30
69590;BMP180;56792;50.644;17.984;2023-04-01T08:32:17;98011.80;;;10.30
69590;BMP180;56792;50.644;17.984;2023-04-01T08:34:57;98008.80;;;10.30
69590;BMP180;56792;50.644;17.984;2023-04-01T08:37:36;98008.20;;;10.30
69590;BMP180;56792;50.644;17.984;2023-04-01T08:40:35;98013.60;;;10.30
69590;BMP180;56792;50.644;17.984;2023-04-01T08:43:17;98016.20;;;10.30
69590;BMP180;56792;50.644;17.984;2023-04-01T08:46:06;98014.20;;;10.30
69590;BMP180;56792;50.644;17.984;2023-04-01T08:49:21;98013.00;;;10.30
69590;BMP180;56792;50.644;17.984;2023-04-01T08:52:22;98012.20;;;10.40
69590;BMP180;56792;50.644;17.984;2023-04-01T08:55:29;98011.80;;;10.40
69590;BMP180;56792;50.644;17.984;2023-04-01T08:58:53;98015.20;;;10.40
69590;BMP180;56792;50.644;17.984;2023-04-01T09:02:00;98018.40;;;10.46
69590;BMP180;56792;50.644;17.984;2023-04-01T09:05:39;98015.60;;;10.50
69590;BMP180;56792;50.644;17.984;2023-04-01T09:08:31;98022.20;;;10.60
69590;BMP180;56792;50.644;17.984;2023-04-01T09:11:09;98024.40;;;10.70
69590;BMP180;56792;50.644;17.984;2023-04-01T09:14:36;98025.80;;;10.80
69590;BMP180;56792;50.644;17.984;2023-04-01T09:17:37;98028.20;;;11.06
69590;BMP180;56792;50.644;17.984;2023-04-01T09:20:42;98033.80;;;11.26
69590;BMP180;56792;50.644;17.984;2023-04-01T09:23:42;98030.60;;;11.40
69590;BMP180;56792;50.644;17.984;2023-04-01T09:26:42;98030.00;;;11.40
69590;BMP180;56792;50.644;17.984;2023-04-01T09:29:32;98028.40;;;11.30
69590;BMP180;56792;50.644;17.984;2023-04-01T09:32:24;98026.20;;;11.30
69590;BMP180;56792;50.644;17.984;2023-04-01T09:35:34;98027.80;;;11.30
69590;BMP180;56792;50.644;17.984;2023-04-01T09:38:21;98033.80;;;11.30
69590;BMP180;56792;50.644;17.984;2023-04-01T09:40:57;98029.20;;;11.30
69590;BMP180;56792;50.644;17.984;2023-04-01T09:44:00;98030.00;;;11.40
69590;BMP180;56792;50.644;17.984;2023-04-01T09:46:50;98032.60;;;11.50
69590;BMP180;56792;50.644;17.984;2023-04-01T09:52:31;98027.60;;;11.70
69590;BMP180;56792;50.644;17.984;2023-04-01T09:55:46;98036.60;;;12.24
69590;BMP180;56792;50.644;17.984;2023-04-01T09:58:44;98038.40;;;12.66
69590;BMP180;56792;50.644;17.984;2023-04-01T10:05:33;98040.00;;;13.00
69590;BMP180;56792;50.644;17.984;2023-04-01T10:15:00;98028.00;;;15.18
69590;BMP180;56792;50.644;17.984;2023-04-01T10:21:12;98032.00;;;18.86
69590;BMP180;56792;50.644;17.984;2023-04-01T10:24:04;98031.80;;;20.88
69590;BMP180;56792;50.644;17.984;2023-04-01T10:27:22;98035.60;;;22.32
69590;BMP180;56792;50.644;17.984;2023-04-01T10:34:23;98044.00;;;23.18
69590;BMP180;56792;50.644;17.984;2023-04-01T10:36:55;98045.40;;;21.74
69590;BMP180;56792;50.644;17.984;2023-04-01T10:40:37;98043.80;;;20.74
69590;BMP180;56792;50.644;17.984;2023-04-01T10:44:09;98042.00;;;19.18
69590;BMP180;56792;50.644;17.984;2023-04-01T10:47:17;98039.20;;;17.90
69590;BMP180;56792;50.644;17.984;2023-04-01T10:53:38;98030.60;;;16.10
69590;BMP180;56792;50.644;17.984;2023-04-01T10:56:45;98028.00;;;15.66
69590;BMP180;56792;50.644;17.984;2023-04-01T11:00:02;98039.20;;;15.80
69590;BMP180;56792;50.644;17.984;2023-04-01T11:04:01;98036.60;;;15.90
69590;BMP180;56792;50.644;17.984;2023-04-01T11:07:22;98038.00;;;15.70
69590;BMP180;56792;50.644;17.984;2023-04-01T11:10:32;98043.40;;;15.20
69590;BMP180;56792;50.644;17.984;2023-04-01T11:13:36;98039.40;;;14.60
69590;BMP180;56792;50.644;17.984;2023-04-01T11:16:52;98045.80;;;14.32
69590;BMP180;56792;50.644;17.984;2023-04-01T11:20:11;98046.20;;;14.10
69590;BMP180;56792;50.644;17.984;2023-04-01T11:23:10;98051.00;;;14.00
69590;BMP180;56792;50.644;17.984;2023-04-01T11:26:08;98050.40;;;13.80
69590;BMP180;56792;50.644;17.984;2023-04-01T11:29:33;98048.60;;;13.72
69590;BMP180;56792;50.644;17.984;2023-04-01T11:32:37;98056.20;;;13.96
69590;BMP180;56792;50.644;17.984;2023-04-01T11:35:39;98052.20;;;15.18
69590;BMP180;56792;50.644;17.984;2023-04-01T11:38:28;98048.40;;;16.88
69590;BMP180;56792;50.644;17.984;2023-04-01T11:41:41;98049.20;;;18.18
69590;BMP180;56792;50.644;17.984;2023-04-01T11:44:51;98047.60;;;19.54
69590;BMP180;56792;50.644;17.984;2023-04-01T11:47:50;98050.60;;;21.16
69590;BMP180;56792;50.644;17.984;2023-04-01T11:50:31;98041.40;;;20.92
69590;BMP180;56792;50.644;17.984;2023-04-01T11:53:26;98045.80;;;21.60
69590;BMP180;56792;50.644;17.984;2023-04-01T11:56:13;98046.60;;;22.42
69590;BMP180;56792;50.644;17.984;2023-04-01T12:02:09;98057.20;;;20.92
69590;BMP180;56792;50.644;17.984;2023-04-01T12:04:55;98057.00;;;19.72
69590;BMP180;56792;50.644;17.984;2023-04-01T12:07:49;98059.80;;;19.40
69590;BMP180;56792;50.644;17.984;2023-04-01T12:10:21;98062.80;;;18.98
69590;BMP180;56792;50.644;17.984;2023-04-01T12:13:04;98063.60;;;18.38
69590;BMP180;56792;50.644;17.984;2023-04-01T12:15:53;98062.00;;;17.50
69590;BMP180;56792;50.644;17.984;2023-04-01T12:18:33;98067.00;;;16.90
69590;BMP180;56792;50.644;17.984;2023-04-01T12:21:17;98062.00;;;16.30
69590;BMP180;56792;50.644;17.984;2023-04-01T12:27:16;98075.60;;;16.00
69590;BMP180;56792;50.644;17.984;2023-04-01T12:30:11;98075.00;;;15.60
69590;BMP180;56792;50.644;17.984;2023-04-01T12:32:49;98080.80;;;15.18
69590;BMP180;56792;50.644;17.984;2023-04-01T12:35:25;98084.60;;;15.00
69590;BMP180;56792;50.644;17.984;2023-04-01T12:38:13;98090.00;;;14.80
69590;BMP180;56792;50.644;17.984;2023-04-01T12:41:06;98091.40;;;14.60
69590;BMP180;56792;50.644;17.984;2023-04-01T12:44:08;98095.40;;;14.30
69590;BMP180;56792;50.644;17.984;2023-04-01T12:47:15;98100.40;;;14.10
69590;BMP180;56792;50.644;17.984;2023-04-01T12:50:16;98106.40;;;14.10
69590;BMP180;56792;50.644;17.984;2023-04-01T12:53:01;98105.40;;;14.30
69590;BMP180;56792;50.644;17.984;2023-04-01T12:55:41;98109.60;;;14.54
69590;BMP180;56792;50.644;17.984;2023-04-01T13:02:10;98107.60;;;16.62
69590;BMP180;56792;50.644;17.984;2023-04-01T13:05:12;98112.20;;;17.20
69590;BMP180;56792;50.644;17.984;2023-04-01T13:08:07;98112.40;;;17.48
69590;BMP180;56792;50.644;17.984;2023-04-01T13:11:02;98114.80;;;17.70
69590;BMP180;56792;50.644;17.984;2023-04-01T13:13:56;98119.20;;;17.90
69590;BMP180;56792;50.644;17.984;2023-04-01T13:16:32;98118.20;;;18.10
69590;BMP180;56792;50.644;17.984;2023-04-01T13:19:08;98122.20;;;18.42
69590;BMP180;56792;50.644;17.984;2023-04-01T13:21:56;98124.20;;;18.18
69590;BMP180;56792;50.644;17.984;2023-04-01T13:24:43;98122.60;;;17.80
69590;BMP180;56792;50.644;17.984;2023-04-01T13:27:23;98118.40;;;17.48
69590;BMP180;56792;50.644;17.984;2023-04-01T13:30:21;98123.40;;;17.10
69590;BMP180;56792;50.644;17.984;2023-04-01T13:32:59;98123.40;;;16.62
69590;BMP180;56792;50.644;17.984;2023-04-01T13:35:41;98119.00;;;16.30
69590;BMP180;56792;50.644;17.984;2023-04-01T13:38:47;98122.60;;;15.94
69590;BMP180;56792;50.644;17.984;2023-04-01T13:41:33;98128.20;;;15.60
69590;BMP180;56792;50.644;17.984;2023-04-01T13:44:16;98120.80;;;15.40
69590;BMP180;56792;50.644;17.984;2023-04-01T13:50:53;98115.60;;;17.12
69590;BMP180;56792;50.644;17.984;2023-04-01T13:53:55;98120.80;;;17.30
69590;BMP180;56792;50.644;17.984;2023-04-01T13:56:40;98123.80;;;17.04
69590;BMP180;56792;50.644;17.984;2023-04-01T13:59:52;98124.80;;;16.74
69590;BMP180;56792;50.644;17.984;2023-04-01T14:02:51;98123.60;;;16.36
69590;BMP180;56792;50.644;17.984;2023-04-01T14:05:48;98128.80;;;16.10
69590;BMP180;56792;50.644;17.984;2023-04-01T14:08:46;98135.20;;;16.00
69590;BMP180;56792;50.644;17.984;2023-04-01T14:11:25;98141.00;;;16.44
69590;BMP180;56792;50.644;17.984;2023-04-01T14:14:06;98138.00;;;16.90
69590;BMP180;56792;50.644;17.984;2023-04-01T14:17:17;98134.80;;;17.00
69590;BMP180;56792;50.644;17.984;2023-04-01T14:20:25;98138.00;;;16.90
69590;BMP180;56792;50.644;17.984;2023-04-01T14:26:17;98144.40;;;16.62
69590;BMP180;56792;50.644;17.984;2023-04-01T14:28:59;98141.00;;;16.40
69590;BMP180;56792;50.644;17.984;2023-04-01T14:31:50;98144.00;;;16.28
69590;BMP180;56792;50.644;17.984;2023-04-01T14:34:40;98143.80;;;16.00
69590;BMP180;56792;50.644;17.984;2023-04-01T14:37:27;98149.20;;;15.84
69590;BMP180;56792;50.644;17.984;2023-04-01T14:40:24;98146.40;;;15.80
69590;BMP180;56792;50.644;17.984;2023-04-01T14:43:20;98153.20;;;15.62
69590;BMP180;56792;50.644;17.984;2023-04-01T14:46:23;98154.80;;;15.50
69590;BMP180;56792;50.644;17.984;2023-04-01T14:49:00;98158.60;;;15.30
69590;BMP180;56792;50.644;17.984;2023-04-01T14:51:34;98161.00;;;15.20
69590;BMP180;56792;50.644;17.984;2023-04-01T14:54:13;98165.80;;;15.10
69590;BMP180;56792;50.644;17.984;2023-04-01T14:56:47;98162.00;;;15.00
69590;BMP180;56792;50.644;17.984;2023-04-01T14:59:28;98164.00;;;14.90
69590;BMP180;56792;50.644;17.984;2023-04-01T15:02:08;98169.80;;;14.80
69590;BMP180;56792;50.644;17.984;2023-04-01T15:04:55;98173.20;;;14.78
69590;BMP180;56792;50.644;17.984;2023-04-01T15:07:56;98172.40;;;14.70
69590;BMP180;56792;50.644;17.984;2023-04-01T15:10:53;98177.00;;;14.60
69590;BMP180;56792;50.644;17.984;2023-04-01T15:13:43;98183.60;;;14.40
69590;BMP180;56792;50.644;17.984;2023-04-01T15:16:25;98182.40;;;14.26
69590;BMP180;56792;50.644;17.984;2023-04-01T15:19:07;98186.00;;;14.10
69590;BMP180;56792;50.644;17.984;2023-04-01T15:21:53;98185.40;;;14.00
69590;BMP180;56792;50.644;17.984;2023-04-01T15:24:28;98195.00;;;13.98
69590;BMP180;56792;50.644;17.984;2023-04-01T15:27:18;98193.00;;;13.90
69590;BMP180;56792;50.644;17.984;2023-04-01T15:30:04;98193.80;;;13.86
69590;BMP180;56792;50.644;17.984;2023-04-01T15:32:54;98197.40;;;13.70
69590;BMP180;56792;50.644;17.984;2023-04-01T15:35:38;98206.80;;;13.50
69590;BMP180;56792;50.644;17.984;2023-04-01T15:38:20;98212.40;;;13.40
69590;BMP180;56792;50.644;17.984;2023-04-01T15:40:58;98213.20;;;13.20
69590;BMP180;56792;50.644;17.984;2023-04-01T15:43:41;98213.80;;;13.10
69590;BMP180;56792;50.644;17.984;2023-04-01T15:46:28;98214.00;;;12.94
69590;BMP180;56792;50.644;17.984;2023-04-01T15:49:10;98213.40;;;12.80
69590;BMP180;56792;50.644;17.984;2023-04-01T15:55:02;98219.00;;;12.60
69590;BMP180;56792;50.644;17.984;2023-04-01T15:57:52;98215.20;;;12.50
69590;BMP180;56792;50.644;17.984;2023-04-01T16:00:28;98218.80;;;12.40
69590;BMP180;56792;50.644;17.984;2023-04-01T16:03:17;98220.60;;;12.40
69590;BMP180;56792;50.644;17.984;2023-04-01T16:06:08;98221.80;;;12.34
69590;BMP180;56792;50.644;17.984;2023-04-01T16:11:51;98228.80;;;12.30
69590;BMP180;56792;50.644;17.984;2023-04-01T16:14:38;98232.40;;;12.30
69590;BMP180;56792;50.644;17.984;2023-04-01T16:17:48;98235.00;;;12.30
69590;BMP180;56792;50.644;17.984;2023-04-01T16:20:23;98233.20;;;12.30
69590;BMP180;56792;50.644;17.984;2023-04-01T16:23:01;98238.40;;;12.20